Terminal Aerodrome Forecast
Issued by NWS

Home | Current Version | Previous Version | Text Only | Print | Product List | Glossary On
Versions: 1 2 3 4 5 6 7 8 9 10 11 12 13
476
FTUS45 KPSR 090236 AAA
TAFBLH
TAF AMD
KBLH 090236Z 0903/0924 33012KT P6SM SKC
     FM090600 33006KT P6SM SKC=

USA.gov is the U.S. government's official web portal to all federal, state and local government web resources and services.